Time;durP1;ratioP1;P1;durP2;ratioP2;P2;SDS_P1;SDS_P2;PMS_P1;PMS_P2;Temp;Humidity;BMP_temperature;BMP_pressure;BME280_temperature;BME280_humidity;BME280_pressure;Samples;Min_cycle;Max_cycle;Signal;HPM_P1;HPM_P2
2021/12/06 00:01:42;;;;;;;24.63;12.68;;;2.40;99.90;;;;;;5067663;28;20502;-86
2021/12/06 00:04:22;;;;;;;26.42;13.48;;;2.40;99.90;;;;;;5048089;28;20112;-85
2021/12/06 00:06:53;;;;;;;31.70;13.30;;;2.40;99.90;;;;;;5049454;28;20036;-86
2021/12/06 00:09:23;;;;;;;23.33;12.75;;;3.50;99.90;;;;;;5066905;28;20040;-87
2021/12/06 00:11:56;;;;;;;26.75;13.35;;;4.40;99.90;;;;;;5048507;28;20084;-86
2021/12/06 00:14:27;;;;;;;23.50;13.43;;;4.40;99.90;;;;;;5048732;28;20048;-86
2021/12/06 00:16:53;;;;;;;27.70;14.02;;;2.50;99.90;;;;;;5066069;28;20083;-86
2021/12/06 00:19:19;;;;;;;28.17;15.10;;;2.40;99.90;;;;;;5048885;28;20048;-86
2021/12/06 00:21:45;;;;;;;27.20;14.32;;;2.40;99.90;;;;;;5047529;28;20043;-86
2021/12/06 00:24:10;;;;;;;28.75;14.18;;;4.30;99.90;;;;;;5048866;28;20049;-86
2021/12/06 00:26:36;;;;;;;28.20;15.13;;;2.30;99.90;;;;;;5065857;28;20106;-86
2021/12/06 00:29:02;;;;;;;28.20;14.88;;;2.40;99.90;;;;;;5047460;28;20055;-86
2021/12/06 00:31:32;;;;;;;27.92;14.23;;;2.30;99.90;;;;;;5031482;28;20051;-87
2021/12/06 00:34:02;;;;;;;32.13;14.05;;;2.40;99.90;;;;;;5030441;28;20045;-86
2021/12/06 00:36:30;;;;;;;26.70;13.95;;;3.20;99.90;;;;;;5031760;28;20131;-86
2021/12/06 00:38:57;;;;;;;24.95;14.07;;;2.40;99.90;;;;;;5046681;28;20091;-86
2021/12/06 00:41:23;;;;;;;24.13;14.93;;;3.80;99.90;;;;;;5047708;28;20041;-86
2021/12/06 00:43:49;;;;;;;25.27;14.25;;;2.40;99.90;;;;;;5047405;28;20097;-86
2021/12/06 00:46:15;;;;;;;29.52;14.15;;;2.40;99.90;;;;;;5046846;28;20052;-86
2021/12/06 00:48:41;;;;;;;26.05;14.05;;;3.50;99.90;;;;;;5047710;28;20341;-87
2021/12/06 00:51:06;;;;;;;23.50;13.77;;;4.30;99.90;;;;;;5046873;28;20040;-86
2021/12/06 00:53:32;;;;;;;27.73;13.63;;;2.40;99.90;;;;;;5048160;28;20045;-86
2021/12/06 00:55:58;;;;;;;24.15;13.63;;;3.80;99.90;;;;;;5065047;28;20039;-87
2021/12/06 00:58:25;;;;;;;26.92;13.65;;;2.40;99.90;;;;;;5047566;28;20124;-86
2021/12/06 01:00:53;;;;;;;23.02;13.65;;;2.40;99.90;;;;;;5065275;28;20040;-86
2021/12/06 01:03:22;;;;;;;24.42;13.98;;;2.40;99.90;;;;;;5046814;28;20056;-86
2021/12/06 01:05:48;;;;;;;24.50;13.75;;;3.70;99.90;;;;;;5047786;28;20053;-86
2021/12/06 01:08:15;;;;;;;26.10;13.95;;;4.00;99.90;;;;;;5064523;28;20117;-86
2021/12/06 01:10:41;;;;;;;27.13;14.60;;;3.40;99.90;;;;;;5065701;28;20106;-86
2021/12/06 01:13:07;;;;;;;24.23;14.13;;;3.50;99.90;;;;;;5063996;28;20048;-86
2021/12/06 01:15:34;;;;;;;21.70;13.13;;;2.40;99.90;;;;;;5046959;28;20094;-86
2021/12/06 01:18:02;;;;;;;29.13;15.07;;;2.40;99.90;;;;;;5030055;28;20139;-86
2021/12/06 01:20:31;;;;;;;27.42;14.07;;;2.40;99.90;;;;;;5046390;28;20084;-86
2021/12/06 01:23:04;;;;;;;28.20;14.55;;;4.30;99.90;;;;;;5047806;28;20495;-86
2021/12/06 01:25:42;;;;;;;28.17;14.93;;;2.40;99.90;;;;;;5046528;28;20045;-87
2021/12/06 01:41:29;;;;;;;28.40;15.73;;;3.90;99.90;;;;;;5046536;28;20055;-86
2021/12/06 01:44:07;;;;;;;27.80;14.40;;;2.40;99.90;;;;;;5065137;28;20425;-87
2021/12/06 01:46:35;;;;;;;26.52;14.77;;;2.40;99.90;;;;;;5029610;28;20052;-86
2021/12/06 01:49:01;;;;;;;33.33;15.57;;;3.90;99.90;;;;;;5047684;28;20048;-86
2021/12/06 01:51:27;;;;;;;28.73;15.38;;;2.40;99.90;;;;;;5064129;28;20040;-86
2021/12/06 01:53:53;;;;;;;29.40;15.73;;;2.50;99.90;;;;;;5030769;28;20238;-86
2021/12/06 01:56:19;;;;;;;32.63;16.60;;;2.40;99.90;;;;;;5046348;28;20273;-86
2021/12/06 01:58:45;;;;;;;31.48;15.65;;;2.40;99.90;;;;;;5046031;28;20044;-86
2021/12/06 02:01:11;;;;;;;28.70;14.95;;;2.40;99.90;;;;;;5064788;28;20419;-85
2021/12/06 02:03:37;;;;;;;28.35;15.45;;;2.40;99.90;;;;;;5045741;28;20048;-86
2021/12/06 02:06:04;;;;;;;29.45;14.93;;;2.40;99.90;;;;;;5065600;28;20084;-86
2021/12/06 02:08:30;;;;;;;32.00;15.77;;;2.40;99.90;;;;;;5063971;28;20048;-86
2021/12/06 02:11:01;;;;;;;34.35;16.90;;;2.40;99.90;;;;;;5031208;28;20095;-86
2021/12/06 02:13:39;;;;;;;32.53;15.70;;;2.40;99.90;;;;;;5064770;28;20045;-86
2021/12/06 02:16:05;;;;;;;33.92;16.08;;;2.40;99.90;;;;;;5045595;28;20072;-87
2021/12/06 02:18:46;;;;;;;32.25;16.42;;;2.40;99.90;;;;;;5047733;28;20408;-86
2021/12/06 02:21:34;;;;;;;27.73;15.05;;;2.40;99.90;;;;;;5046152;28;20126;-87
2021/12/06 02:24:05;;;;;;;28.13;16.13;;;2.50;99.90;;;;;;5047409;28;20054;-87
2021/12/06 02:26:31;;;;;;;29.70;15.23;;;2.50;99.90;;;;;;5033615;28;20041;-86
2021/12/06 02:28:56;;;;;;;31.67;14.85;;;3.50;99.90;;;;;;5017213;28;20055;-86
2021/12/06 02:31:25;;;;;;;32.55;15.80;;;2.40;99.90;;;;;;5051201;28;20495;-87
2021/12/06 02:33:51;;;;;;;37.97;16.48;;;2.40;99.90;;;;;;5049576;28;20094;-86
2021/12/06 02:36:19;;;;;;;34.40;16.98;;;2.40;99.90;;;;;;5051076;28;20049;-87
2021/12/06 02:38:46;;;;;;;38.95;16.08;;;2.40;99.90;;;;;;5049608;28;20488;-86
2021/12/06 02:41:13;;;;;;;30.42;16.27;;;3.00;99.90;;;;;;5068219;28;20402;-86
2021/12/06 02:43:40;;;;;;;36.70;16.38;;;2.40;99.90;;;;;;5050317;28;20133;-87
2021/12/06 02:46:06;;;;;;;33.50;16.48;;;2.30;99.90;;;;;;5016278;28;20131;-86
2021/12/06 02:48:31;;;;;;;35.13;17.70;;;2.30;99.90;;;;;;5068604;28;20178;-86
2021/12/06 02:51:00;;;;;;;36.92;17.33;;;2.40;99.90;;;;;;5049512;28;20048;-86
2021/12/06 02:53:29;;;;;;;37.22;16.83;;;2.30;99.90;;;;;;5068965;28;20400;-86
2021/12/06 02:55:59;;;;;;;36.25;16.17;;;3.50;99.90;;;;;;5048994;28;20044;-87
2021/12/06 03:01:08;;;;;;;35.85;16.02;;;3.60;99.90;;;;;;5050007;28;20049;-87
2021/12/06 03:03:34;;;;;;;35.00;17.05;;;2.40;99.90;;;;;;5048795;28;20043;-86
2021/12/06 03:06:00;;;;;;;37.63;17.65;;;2.30;99.90;;;;;;5033626;28;20037;-86
2021/12/06 03:08:45;;;;;;;36.28;16.02;;;3.50;99.90;;;;;;5048619;28;20048;-87
2021/12/06 03:11:26;;;;;;;35.90;16.77;;;2.40;99.90;;;;;;5049321;28;20223;-87
2021/12/06 03:13:52;;;;;;;38.78;17.55;;;2.30;99.90;;;;;;5049549;28;20605;-87
2021/12/06 03:16:18;;;;;;;35.50;15.35;;;2.30;99.90;;;;;;5066815;28;20127;-87
2021/12/06 03:18:45;;;;;;;42.25;17.73;;;2.30;99.90;;;;;;5050486;28;20067;-87
2021/12/06 03:21:13;;;;;;;35.30;16.55;;;2.30;99.90;;;;;;5031744;28;20049;-87
2021/12/06 03:23:39;;;;;;;35.47;16.45;;;2.30;99.90;;;;;;5017000;28;20052;-86
2021/12/06 03:26:06;;;;;;;34.30;16.88;;;3.40;99.90;;;;;;5067081;28;20040;-87
2021/12/06 03:28:36;;;;;;;34.00;16.77;;;3.60;99.90;;;;;;5048644;28;20045;-87
2021/12/06 03:31:04;;;;;;;38.38;17.02;;;4.10;99.90;;;;;;5032662;28;20481;-87
2021/12/06 03:33:30;;;;;;;36.72;16.40;;;4.10;99.90;;;;;;5048609;28;20044;-87
2021/12/06 03:35:56;;;;;;;42.83;17.40;;;2.40;99.90;;;;;;5049911;28;20088;-87
2021/12/06 03:38:22;;;;;;;38.85;17.13;;;2.30;99.90;;;;;;5030874;28;20482;-87
2021/12/06 03:40:49;;;;;;;36.88;17.58;;;2.30;99.90;;;;;;5032688;28;20131;-87
2021/12/06 03:43:15;;;;;;;41.28;17.77;;;4.30;99.90;;;;;;5066237;28;20483;-86
2021/12/06 03:45:40;;;;;;;39.50;17.77;;;2.40;99.90;;;;;;5066414;28;20407;-87
2021/12/06 03:48:06;;;;;;;39.33;17.67;;;2.30;99.90;;;;;;5048917;28;20048;-87
2021/12/06 03:50:32;;;;;;;38.03;17.20;;;2.40;99.90;;;;;;5047796;28;20036;-87
2021/12/06 03:52:58;;;;;;;40.33;18.52;;;2.40;99.90;;;;;;5049787;28;20197;-86
2021/12/06 03:55:23;;;;;;;40.03;18.38;;;2.40;99.90;;;;;;5031550;28;20545;-87
2021/12/06 03:57:49;;;;;;;43.67;16.90;;;2.40;99.90;;;;;;5032949;28;20054;-87
2021/12/06 04:00:16;;;;;;;40.20;17.35;;;2.40;99.90;;;;;;5048397;28;20382;-86
2021/12/06 04:02:43;;;;;;;36.15;16.45;;;2.40;99.90;;;;;;5031650;28;20491;-86
2021/12/06 04:05:10;;;;;;;41.00;17.77;;;2.40;99.90;;;;;;5066850;28;20049;-87
2021/12/06 04:07:36;;;;;;;38.25;18.15;;;3.50;99.90;;;;;;5065573;28;20444;-86
2021/12/06 04:10:05;;;;;;;38.65;17.45;;;3.00;99.90;;;;;;5049007;28;20051;-86
2021/12/06 04:12:31;;;;;;;36.50;17.27;;;2.40;99.90;;;;;;5046944;28;20048;-87
2021/12/06 04:14:58;;;;;;;36.88;17.13;;;3.60;99.90;;;;;;5067208;28;20051;-87
2021/12/06 04:17:24;;;;;;;44.88;19.00;;;2.50;99.90;;;;;;5047756;28;20057;-87
2021/12/06 04:19:50;;;;;;;36.92;17.08;;;2.50;99.90;;;;;;5048001;28;20045;-87
2021/12/06 04:22:16;;;;;;;36.75;17.55;;;2.50;99.90;;;;;;5048030;28;20055;-87
2021/12/06 04:24:43;;;;;;;41.95;17.75;;;2.50;99.90;;;;;;5047653;28;20045;-87
2021/12/06 04:27:14;;;;;;;45.55;18.90;;;2.50;99.90;;;;;;5032572;28;20095;-87
2021/12/06 04:29:49;;;;;;;38.88;18.30;;;3.20;99.90;;;;;;5031624;28;20047;-87
2021/12/06 04:32:15;;;;;;;43.45;17.13;;;2.50;99.90;;;;;;5048262;28;20044;-87
2021/12/06 04:34:41;;;;;;;34.47;16.98;;;2.50;99.90;;;;;;5065964;28;20051;-87
2021/12/06 04:37:07;;;;;;;42.25;17.17;;;2.50;99.90;;;;;;5031541;28;20048;-86
2021/12/06 04:39:33;;;;;;;46.20;17.33;;;3.40;99.90;;;;;;5032429;28;20548;-87
2021/12/06 04:41:59;;;;;;;38.95;17.52;;;2.50;99.90;;;;;;5047655;28;20095;-86
2021/12/06 04:44:25;;;;;;;39.55;17.92;;;4.40;99.90;;;;;;5032566;28;20059;-87
2021/12/06 04:46:51;;;;;;;41.85;18.80;;;2.60;99.90;;;;;;5047177;28;20074;-86
2021/12/06 04:49:17;;;;;;;33.78;16.33;;;2.50;99.90;;;;;;5049059;28;20048;-87
2021/12/06 04:51:49;;;;;;;39.90;16.60;;;2.10;99.90;;;;;;5014939;28;20052;-87
2021/12/06 04:54:19;;;;;;;44.67;18.13;;;2.60;99.90;;;;;;5047077;28;20037;-88
2021/12/06 04:56:50;;;;;;;40.20;17.95;;;2.60;99.90;;;;;;5031545;28;20055;-86
2021/12/06 04:59:33;;;;;;;36.80;17.27;;;2.60;99.90;;;;;;5029858;28;20471;-87
2021/12/06 05:02:01;;;;;;;37.85;16.02;;;2.60;99.90;;;;;;5048440;28;20060;-88
2021/12/06 05:04:33;;;;;;;43.80;16.05;;;2.60;99.90;;;;;;5046843;28;20075;-87
2021/12/06 05:07:06;;;;;;;36.47;16.48;;;2.60;99.90;;;;;;5029931;28;20044;-87
2021/12/06 05:09:35;;;;;;;40.10;16.88;;;2.60;99.90;;;;;;5048082;28;20445;-87
2021/12/06 05:12:03;;;;;;;34.42;15.98;;;2.60;99.90;;;;;;5046101;28;20132;-87
2021/12/06 05:14:29;;;;;;;37.67;17.00;;;2.60;99.90;;;;;;5031276;28;20048;-87
2021/12/06 05:16:55;;;;;;;43.45;18.80;;;2.60;99.90;;;;;;5029741;28;20044;-87
2021/12/06 05:19:21;;;;;;;46.60;18.13;;;2.80;99.90;;;;;;5047310;28;20531;-87
2021/12/06 05:21:47;;;;;;;38.78;18.08;;;2.60;99.90;;;;;;5030420;28;20056;-87
2021/12/06 05:24:15;;;;;;;40.22;17.40;;;2.60;99.90;;;;;;5029914;28;20037;-86
2021/12/06 05:26:42;;;;;;;40.00;17.33;;;3.40;99.90;;;;;;5047459;28;20471;-87
2021/12/06 05:29:09;;;;;;;42.47;19.05;;;3.80;99.90;;;;;;5029078;28;20506;-87
2021/12/06 05:31:41;;;;;;;39.33;18.33;;;3.20;99.90;;;;;;5047935;28;20127;-86
2021/12/06 05:34:19;;;;;;;48.65;18.45;;;2.60;99.90;;;;;;5013365;28;20048;-87
2021/12/06 05:36:44;;;;;;;41.90;16.35;;;2.60;99.90;;;;;;5047335;28;20036;-86
2021/12/06 05:39:11;;;;;;;39.22;17.90;;;4.50;99.90;;;;;;5030451;28;20377;-87
2021/12/06 05:41:37;;;;;;;41.00;18.05;;;4.50;99.90;;;;;;5046063;28;20050;-87
2021/12/06 05:44:04;;;;;;;44.42;17.90;;;2.60;99.90;;;;;;5031543;28;20471;-87
2021/12/06 05:46:30;;;;;;;43.85;17.77;;;2.60;99.90;;;;;;5045762;28;20177;-87
2021/12/06 05:48:56;;;;;;;42.00;17.30;;;2.60;99.90;;;;;;5047831;28;20048;-86
2021/12/06 05:51:21;;;;;;;38.30;17.55;;;3.40;99.90;;;;;;5046338;28;20041;-87
2021/12/06 05:53:47;;;;;;;41.88;18.23;;;4.30;99.90;;;;;;5030276;28;20492;-87
2021/12/06 05:56:13;;;;;;;42.30;17.02;;;2.30;99.90;;;;;;5046549;28;20125;-84
2021/12/06 05:58:39;;;;;;;42.72;18.60;;;3.20;99.90;;;;;;5046300;28;20052;-86
2021/12/06 06:01:05;;;;;;;37.85;16.38;;;3.40;99.90;;;;;;5033292;28;20044;-86
2021/12/06 06:03:31;;;;;;;34.35;16.58;;;2.60;99.90;;;;;;5067486;28;20044;-87
2021/12/06 06:05:57;;;;;;;35.85;15.63;;;2.60;99.90;;;;;;5052118;28;20055;-85
2021/12/06 06:08:23;;;;;;;38.35;16.77;;;2.60;99.90;;;;;;5067779;28;20044;-88
2021/12/06 06:10:51;;;;;;;38.15;16.58;;;2.60;99.90;;;;;;5034343;28;20052;-87
2021/12/06 06:13:19;;;;;;;36.75;16.45;;;2.60;99.90;;;;;;5067623;28;20514;-87
2021/12/06 06:15:45;;;;;;;38.47;16.02;;;3.70;99.90;;;;;;5068098;28;20041;-87
2021/12/06 06:18:11;;;;;;;40.88;17.60;;;2.60;99.90;;;;;;5051164;28;20049;-86
2021/12/06 06:20:42;;;;;;;40.88;16.92;;;4.00;99.90;;;;;;5032374;28;20059;-86
2021/12/06 06:23:09;;;;;;;40.55;17.60;;;2.50;99.90;;;;;;5051314;28;20522;-88
2021/12/06 06:25:35;;;;;;;46.05;18.85;;;2.50;99.90;;;;;;5067697;28;20383;-93
2021/12/06 06:28:02;;;;;;;41.47;17.85;;;4.50;99.90;;;;;;5017943;28;20044;-89
2021/12/06 06:30:28;;;;;;;35.55;16.75;;;2.60;99.90;;;;;;5069029;28;20159;-89
2021/12/06 06:32:54;;;;;;;42.55;16.90;;;2.50;99.90;;;;;;5049411;28;20044;-86
2021/12/06 06:35:20;;;;;;;41.53;17.35;;;2.50;99.90;;;;;;5034645;28;20048;-88
2021/12/06 06:37:46;;;;;;;45.80;17.05;;;2.50;99.90;;;;;;5016245;28;20047;-86
2021/12/06 06:40:13;;;;;;;37.33;15.63;;;2.50;99.90;;;;;;5037014;28;20127;-84
2021/12/06 06:42:39;;;;;;;38.25;16.35;;;2.50;99.90;;;;;;5049741;28;20402;-84
2021/12/06 06:45:10;;;;;;;38.92;15.88;;;2.50;99.90;;;;;;5017351;28;20100;-83
2021/12/06 06:47:35;;;;;;;44.42;17.92;;;2.50;99.90;;;;;;5050278;28;20400;-85
2021/12/06 06:50:01;;;;;;;35.30;14.70;;;2.50;99.90;;;;;;5048295;28;20036;-83
2021/12/06 06:52:27;;;;;;;36.88;16.17;;;2.50;99.90;;;;;;5050174;28;20048;-85
2021/12/06 06:54:53;;;;;;;40.60;15.52;;;2.50;99.90;;;;;;5032076;28;20052;-86
2021/12/06 06:57:19;;;;;;;40.55;17.27;;;3.70;99.90;;;;;;5034805;28;20084;-82
2021/12/06 06:59:45;;;;;;;35.35;15.40;;;2.50;99.90;;;;;;5066913;28;20040;-82
2021/12/06 07:02:12;;;;;;;36.08;14.13;;;2.50;99.90;;;;;;5050405;28;20044;-84
2021/12/06 07:04:38;;;;;;;32.38;15.07;;;2.50;99.90;;;;;;5049908;28;20040;-85
2021/12/06 07:07:04;;;;;;;36.10;14.70;;;2.50;99.90;;;;;;5066572;28;20519;-84
2021/12/06 07:09:29;;;;;;;38.45;14.30;;;4.10;99.90;;;;;;5016123;28;20040;-85
2021/12/06 07:11:55;;;;;;;38.75;15.30;;;2.40;99.90;;;;;;5043256;28;20459;-84
2021/12/06 07:14:21;;;;;;;38.30;15.90;;;2.50;99.90;;;;;;5046926;28;20049;-84
2021/12/06 07:16:48;;;;;;;34.10;14.20;;;2.40;99.90;;;;;;5027371;28;20475;-84
2021/12/06 07:19:14;;;;;;;41.85;16.65;;;2.40;99.90;;;;;;5046158;28;20396;-84
2021/12/06 07:21:40;;;;;;;35.38;15.52;;;3.60;99.90;;;;;;5044831;28;20040;-84
2021/12/06 07:24:06;;;;;;;38.78;15.73;;;4.30;99.90;;;;;;5010936;28;20051;-84
2021/12/06 07:26:32;;;;;;;40.65;16.48;;;2.50;99.90;;;;;;5029911;28;20052;-85
2021/12/06 07:29:00;;;;;;;34.33;14.95;;;2.40;99.90;;;;;;5043034;28;20044;-84
2021/12/06 07:31:27;;;;;;;34.88;15.57;;;2.40;99.90;;;;;;5045442;28;20591;-85
2021/12/06 07:33:53;;;;;;;44.40;17.77;;;3.00;99.90;;;;;;5028007;28;20033;-86
2021/12/06 07:36:22;;;;;;;45.58;16.92;;;2.50;99.90;;;;;;5045624;28;20492;-84
2021/12/06 07:38:50;;;;;;;39.90;16.05;;;3.30;99.90;;;;;;5046283;28;20049;-81
2021/12/06 07:41:19;;;;;;;42.15;17.23;;;3.50;99.90;;;;;;5044320;28;20099;-84
2021/12/06 07:43:45;;;;;;;39.80;18.15;;;4.30;99.90;;;;;;5045965;28;20048;-84
2021/12/06 07:46:11;;;;;;;40.30;16.73;;;2.40;99.90;;;;;;5045770;28;20073;-83
2021/12/06 07:48:39;;;;;;;45.65;18.02;;;2.50;99.90;;;;;;5045675;28;20067;-84
2021/12/06 07:51:06;;;;;;;51.67;19.10;;;2.50;99.90;;;;;;5043428;28;20053;-83
2021/12/06 07:53:34;;;;;;;41.92;17.05;;;2.50;99.90;;;;;;5046432;28;20049;-84
2021/12/06 07:56:00;;;;;;;37.42;16.80;;;2.50;99.90;;;;;;5044863;28;20044;-84
2021/12/06 07:58:27;;;;;;;42.95;16.15;;;2.50;99.90;;;;;;5044609;28;20432;-84
2021/12/06 08:00:53;;;;;;;37.88;16.75;;;2.50;99.90;;;;;;5011847;28;20488;-84
2021/12/06 08:03:22;;;;;;;44.28;17.33;;;2.50;99.90;;;;;;5025664;28;20053;-83
2021/12/06 08:05:50;;;;;;;40.25;15.88;;;2.50;99.90;;;;;;5029611;28;20049;-84
2021/12/06 08:08:27;;;;;;;39.22;16.77;;;4.40;99.90;;;;;;5027153;28;20083;-84
2021/12/06 08:10:56;;;;;;;48.72;18.85;;;2.50;99.90;;;;;;5045827;28;20041;-83
2021/12/06 08:13:26;;;;;;;50.78;17.60;;;2.50;99.90;;;;;;5048288;28;20049;-84
2021/12/06 08:15:55;;;;;;;44.28;17.55;;;2.50;99.90;;;;;;5047266;28;20792;-83
2021/12/06 08:18:22;;;;;;;48.45;17.30;;;2.80;99.90;;;;;;5048957;28;20178;-84
2021/12/06 08:20:48;;;;;;;46.92;17.40;;;2.50;99.90;;;;;;5046249;28;20128;-83
2021/12/06 08:23:15;;;;;;;51.83;19.02;;;3.80;99.90;;;;;;5031954;28;20059;-83
2021/12/06 08:25:44;;;;;;;46.22;15.95;;;2.50;99.90;;;;;;5047829;28;20515;-84
2021/12/06 08:28:10;;;;;;;48.75;19.27;;;2.50;99.90;;;;;;5047045;28;20051;-83
2021/12/06 08:30:36;;;;;;;49.65;18.50;;;2.50;99.90;;;;;;5029219;28;20042;-84
2021/12/06 08:33:04;;;;;;;51.10;17.77;;;2.50;99.90;;;;;;5027797;28;20040;-84
2021/12/06 08:35:32;;;;;;;47.58;18.05;;;4.40;99.90;;;;;;5032203;28;20063;-84
2021/12/06 08:37:59;;;;;;;37.70;17.23;;;2.60;99.90;;;;;;5028990;28;20124;-84
2021/12/06 08:40:27;;;;;;;47.15;16.88;;;2.60;99.90;;;;;;5015437;28;20067;-83
2021/12/06 08:42:56;;;;;;;42.05;16.98;;;4.40;99.90;;;;;;5045761;28;20520;-84
2021/12/06 08:45:23;;;;;;;48.88;17.88;;;3.50;99.90;;;;;;5046000;28;20041;-83
2021/12/06 08:47:49;;;;;;;45.80;17.92;;;3.80;99.90;;;;;;5030425;28;20098;-86
2021/12/06 08:50:19;;;;;;;45.30;17.90;;;4.40;99.90;;;;;;5030111;28;20040;-83
2021/12/06 08:52:45;;;;;;;50.20;17.13;;;4.20;99.90;;;;;;5048741;28;20210;-84
2021/12/06 08:55:12;;;;;;;52.03;19.45;;;4.10;99.90;;;;;;5045333;28;20036;-83
2021/12/06 08:57:39;;;;;;;51.83;19.13;;;2.60;99.90;;;;;;5030912;28;20044;-84
2021/12/06 09:00:26;;;;;;;47.53;17.63;;;2.70;99.90;;;;;;5031283;28;20040;-84
2021/12/06 09:02:53;;;;;;;44.20;17.23;;;2.70;99.90;;;;;;5030287;28;20037;-84
2021/12/06 09:05:19;;;;;;;51.90;19.58;;;3.10;99.90;;;;;;5047730;28;20105;-84
2021/12/06 09:07:45;;;;;;;52.92;19.08;;;2.70;99.90;;;;;;5064491;28;20384;-84
2021/12/06 09:10:12;;;;;;;54.58;19.75;;;2.70;99.90;;;;;;5048955;28;20703;-84
2021/12/06 09:12:38;;;;;;;45.83;17.65;;;2.80;99.90;;;;;;5042903;28;20053;-84
2021/12/06 09:15:10;;;;;;;49.08;18.95;;;4.20;99.90;;;;;;5013854;28;20135;-82
2021/12/06 09:17:36;;;;;;;42.92;17.02;;;2.80;99.90;;;;;;5047024;28;20049;-83
2021/12/06 09:20:04;;;;;;;44.75;17.73;;;2.80;99.90;;;;;;5027910;28;20044;-85
2021/12/06 09:22:30;;;;;;;43.83;17.90;;;2.90;99.90;;;;;;5065943;28;20150;-84
2021/12/06 09:24:55;;;;;;;48.90;18.70;;;2.90;99.90;;;;;;5045777;28;20056;-84
2021/12/06 09:27:21;;;;;;;40.35;17.33;;;2.90;99.90;;;;;;5031333;28;20083;-84
2021/12/06 09:29:47;;;;;;;46.35;17.42;;;3.00;99.90;;;;;;5028560;28;20567;-83
2021/12/06 09:32:14;;;;;;;38.72;16.63;;;3.00;99.90;;;;;;5047320;28;20429;-84
2021/12/06 09:34:44;;;;;;;40.42;15.85;;;3.00;99.90;;;;;;5045556;28;20048;-84
2021/12/06 09:37:11;;;;;;;38.83;15.73;;;3.00;99.90;;;;;;5028164;28;20044;-84
2021/12/06 09:39:37;;;;;;;42.28;16.77;;;3.00;99.90;;;;;;5046952;28;20040;-84
2021/12/06 09:42:05;;;;;;;35.22;15.93;;;3.00;99.90;;;;;;5044894;28;20095;-85
2021/12/06 09:44:31;;;;;;;36.08;14.63;;;3.00;99.90;;;;;;5047842;28;20115;-84
2021/12/06 09:46:58;;;;;;;34.40;14.27;;;3.70;99.90;;;;;;5045650;28;20067;-84
2021/12/06 09:49:24;;;;;;;37.47;15.82;;;3.50;99.90;;;;;;5065089;28;20043;-85
2021/12/06 09:52:01;;;;;;;42.30;15.45;;;3.10;99.90;;;;;;5046518;28;20041;-84
2021/12/06 09:54:36;;;;;;;31.17;14.18;;;3.10;99.90;;;;;;5044389;28;20088;-84
2021/12/06 09:57:06;;;;;;;32.50;13.75;;;3.10;99.90;;;;;;5047912;28;20044;-85
2021/12/06 09:59:34;;;;;;;39.88;14.68;;;3.10;99.90;;;;;;5063977;28;20047;-85
2021/12/06 10:02:14;;;;;;;35.50;15.48;;;3.10;99.90;;;;;;5047218;28;20037;-84
2021/12/06 10:04:47;;;;;;;36.95;14.52;;;5.10;99.90;;;;;;5030003;28;20453;-84
2021/12/06 10:07:13;;;;;;;31.30;13.93;;;3.10;99.90;;;;;;5062082;28;20044;-84
2021/12/06 10:09:40;;;;;;;31.33;13.63;;;3.10;99.90;;;;;;5046877;28;20055;-84
2021/12/06 10:12:07;;;;;;;30.45;14.48;;;5.00;99.90;;;;;;5062462;28;20057;-85
2021/12/06 10:14:35;;;;;;;33.75;13.95;;;3.10;99.90;;;;;;5047408;28;20095;-85
2021/12/06 10:17:02;;;;;;;35.25;14.48;;;3.10;99.90;;;;;;5045065;28;20531;-84
2021/12/06 10:19:27;;;;;;;31.70;14.18;;;3.10;99.90;;;;;;5027052;28;20076;-84
2021/12/06 10:21:54;;;;;;;34.33;14.88;;;4.70;99.90;;;;;;5027262;28;20478;-85
2021/12/06 10:24:23;;;;;;;34.13;13.27;;;3.80;99.90;;;;;;5045432;28;20502;-84
2021/12/06 10:26:49;;;;;;;32.33;13.27;;;4.80;99.90;;;;;;5046939;28;20052;-85
2021/12/06 10:29:22;;;;;;;35.33;13.15;;;3.10;99.90;;;;;;5045395;28;20091;-85
2021/12/06 10:31:54;;;;;;;28.15;11.82;;;3.10;99.90;;;;;;5047246;28;21025;-84
2021/12/06 10:34:27;;;;;;;28.30;12.98;;;3.10;99.90;;;;;;5045962;28;20134;-86
2021/12/06 10:36:54;;;;;;;29.33;12.77;;;3.10;99.90;;;;;;5045524;28;20049;-85
2021/12/06 10:39:22;;;;;;;29.98;13.63;;;3.20;99.90;;;;;;5044623;28;20131;-84
2021/12/06 10:41:50;;;;;;;34.72;12.82;;;3.20;99.90;;;;;;5029206;28;20064;-84
2021/12/06 10:44:17;;;;;;;31.65;12.57;;;3.20;99.90;;;;;;5045190;28;20106;-84
2021/12/06 10:46:52;;;;;;;31.17;13.57;;;4.30;99.90;;;;;;5027573;28;20044;-84
2021/12/06 10:49:23;;;;;;;32.13;12.75;;;3.20;99.90;;;;;;5032685;28;20479;-83
2021/12/06 10:51:49;;;;;;;29.35;12.60;;;4.70;99.90;;;;;;5048045;28;20106;-84
2021/12/06 10:54:33;;;;;;;29.77;12.57;;;4.40;99.90;;;;;;5032670;28;20049;-84
2021/12/06 10:57:03;;;;;;;29.10;12.23;;;4.40;99.90;;;;;;5050720;28;20106;-85
2021/12/06 10:59:34;;;;;;;30.10;12.38;;;3.10;99.90;;;;;;5032890;28;20373;-85
2021/12/06 11:02:09;;;;;;;34.22;12.80;;;3.10;99.90;;;;;;5067294;28;20437;-84
2021/12/06 11:04:36;;;;;;;25.70;12.05;;;1.60;99.90;;;;;;5049452;28;20056;-84
2021/12/06 11:07:08;;;;;;;24.15;11.07;;;4.40;99.90;;;;;;5048921;28;20120;-84
2021/12/06 11:09:41;;;;;;;28.13;11.85;;;4.90;99.90;;;;;;5050577;28;20177;-86
2021/12/06 11:12:08;;;;;;;32.30;12.23;;;3.20;99.90;;;;;;5031465;28;20067;-84
2021/12/06 11:14:41;;;;;;;29.27;13.50;;;3.20;99.90;;;;;;5050503;28;20467;-83
2021/12/06 11:17:18;;;;;;;29.17;12.43;;;4.60;99.90;;;;;;5048549;28;20055;-84
2021/12/06 11:19:45;;;;;;;28.80;12.52;;;3.20;99.90;;;;;;5065907;28;20359;-84
2021/12/06 11:22:16;;;;;;;29.05;12.50;;;3.10;99.90;;;;;;5067967;28;20601;-85
2021/12/06 11:24:46;;;;;;;26.10;11.55;;;3.10;99.90;;;;;;5046853;28;20048;-84
2021/12/06 11:27:19;;;;;;;28.50;12.27;;;3.20;99.90;;;;;;5068420;28;20044;-84
2021/12/06 11:29:51;;;;;;;29.85;12.38;;;3.20;99.90;;;;;;5048462;28;20052;-84
2021/12/06 11:32:21;;;;;;;33.88;12.82;;;3.20;99.90;;;;;;5049113;28;20053;-84
2021/12/06 11:34:56;;;;;;;26.27;12.32;;;3.10;99.90;;;;;;5049256;28;20060;-84
2021/12/06 11:37:30;;;;;;;31.70;13.57;;;3.20;99.90;;;;;;5029549;28;20044;-85
2021/12/06 11:40:04;;;;;;;33.60;13.48;;;3.10;99.90;;;;;;5032158;28;20143;-85
2021/12/06 11:42:30;;;;;;;33.55;13.45;;;3.10;99.90;;;;;;5029315;28;20087;-85
2021/12/06 11:44:56;;;;;;;32.33;14.63;;;3.10;99.90;;;;;;5031318;28;20079;-85
2021/12/06 11:47:22;;;;;;;37.72;14.30;;;3.10;99.90;;;;;;5045578;28;20442;-85
2021/12/06 11:50:00;;;;;;;41.83;18.77;;;4.40;99.90;;;;;;5029366;28;20048;-86
2021/12/06 11:52:30;;;;;;;38.00;17.13;;;3.20;99.90;;;;;;5048937;28;20044;-87
2021/12/06 11:55:01;;;;;;;36.40;16.60;;;3.20;99.90;;;;;;5047384;28;20485;-86
2021/12/06 11:57:43;;;;;;;46.70;19.08;;;3.20;99.90;;;;;;5049211;28;20072;-85
2021/12/06 12:00:20;;;;;;;29.25;12.43;;;4.90;99.90;;;;;;5046762;28;20044;-86
2021/12/06 12:02:48;;;;;;;41.03;16.48;;;3.30;99.90;;;;;;5046309;28;20036;-85
2021/12/06 12:05:32;;;;;;;40.30;16.58;;;3.30;99.90;;;;;;5049384;28;20467;-85
2021/12/06 12:08:14;;;;;;;31.65;13.30;;;3.30;99.90;;;;;;5046097;28;20059;-85
2021/12/06 12:10:45;;;;;;;33.50;15.57;;;3.30;99.90;;;;;;5031152;28;20044;-85
2021/12/06 12:13:24;;;;;;;30.83;14.85;;;3.30;99.90;;;;;;5047528;28;20512;-86
2021/12/06 12:16:07;;;;;;;33.78;13.98;;;3.40;99.90;;;;;;5047550;28;20455;-85
2021/12/06 12:18:36;;;;;;;20.70;10.63;;;5.20;99.90;;;;;;5049242;28;20053;-86
2021/12/06 12:21:04;;;;;;;40.47;14.43;;;3.40;99.90;;;;;;5046359;28;20048;-85
2021/12/06 12:23:32;;;;;;;26.98;12.60;;;3.50;99.90;;;;;;5047283;28;20071;-85
2021/12/06 12:26:05;;;;;;;32.22;13.20;;;3.50;99.90;;;;;;5029217;28;20041;-85
2021/12/06 12:28:38;;;;;;;29.80;13.88;;;4.30;99.90;;;;;;5029570;28;20048;-85
2021/12/06 12:31:08;;;;;;;28.33;12.52;;;3.50;99.90;;;;;;5048318;28;20059;-86
2021/12/06 12:33:35;;;;;;;24.63;12.18;;;3.50;99.90;;;;;;5046149;28;20086;-86
2021/12/06 12:36:09;;;;;;;26.35;11.32;;;3.50;99.90;;;;;;5047378;28;20052;-86
2021/12/06 12:38:38;;;;;;;25.38;11.57;;;3.50;99.90;;;;;;5029776;28;20052;-87
2021/12/06 12:41:13;;;;;;;20.83;10.73;;;3.50;99.90;;;;;;5013353;28;20052;-86
2021/12/06 12:43:49;;;;;;;26.13;11.07;;;3.50;99.90;;;;;;5048386;28;20483;-86
2021/12/06 12:46:19;;;;;;;26.10;10.85;;;3.50;99.90;;;;;;5030060;28;20045;-86
2021/12/06 12:48:54;;;;;;;20.90;10.95;;;4.10;99.90;;;;;;5046371;28;20463;-88
2021/12/06 12:51:32;;;;;;;24.92;11.07;;;3.50;99.90;;;;;;5029392;28;20407;-87
2021/12/06 12:53:59;;;;;;;24.20;11.25;;;2.00;99.90;;;;;;5044459;28;20052;-87
2021/12/06 12:56:41;;;;;;;28.77;11.40;;;3.40;99.90;;;;;;5030308;28;20387;-86
2021/12/06 12:59:26;;;;;;;28.65;11.85;;;3.40;99.90;;;;;;5029543;28;20056;-86